Yukon, Oklahoma
Current Conditions -  °F | °C
As of 2:55 PM on Saturday 20 Dec 2014 (Local Time) from KRCE Reporting Station
Overcast Overcast  
Wind Chill: 37°   Ceiling: 1400
Heat Index: 43°   Visibility: 10mi
Dew Point: 41°   Wind: 9mph
Humidity: 93%   Direction: 210°SSW
Pressure: 30.16"   Gusts: NA
Location:  35.51°N, 97.74°W
Report Text: KRCE 202055Z AUTO 21008KT 10SM OVC014 06/05 A3016 RMK AO2
Loading
Personal Weather Stations






























Interactive Weather Map New forecast layout! Learn more

10-Day Weather Forecast

Advertisements
Track Severe Weather on mobile